National Weather Service Raw Text Product

Displaying AFOS PIL: TAFMCW Received: 2017-12-07 17:21 UTC


276 
FTUS43 KDMX 071721
TAFMCW
TAF
KMCW 071721Z 0718/0818 29011KT P6SM FEW250
     FM080400 25009KT P6SM BKN100
     FM081100 26006KT P6SM BKN025=